sensor_id;sensor_type;location;lat;lon;timestamp;P1;durP1;ratioP1;P2;durP2;ratioP2
6089;SDS011;3073;42.660;23.316;2022-07-10T00:02:28;17.70;;;15.90;;
6089;SDS011;3073;42.660;23.316;2022-07-10T00:04:56;18.03;;;15.67;;
6089;SDS011;3073;42.660;23.316;2022-07-10T00:07:23;19.10;;;16.03;;
6089;SDS011;3073;42.660;23.316;2022-07-10T00:09:49;17.03;;;15.10;;
6089;SDS011;3073;42.660;23.316;2022-07-10T00:12:35;18.70;;;16.33;;
6089;SDS011;3073;42.660;23.316;2022-07-10T00:15:02;17.23;;;15.43;;
6089;SDS011;3073;42.660;23.316;2022-07-10T00:17:29;20.40;;;18.00;;
6089;SDS011;3073;42.660;23.316;2022-07-10T00:19:58;20.50;;;18.40;;
6089;SDS011;3073;42.660;23.316;2022-07-10T00:22:26;17.37;;;15.57;;
6089;SDS011;3073;42.660;23.316;2022-07-10T00:24:52;27.43;;;17.43;;
6089;SDS011;3073;42.660;23.316;2022-07-10T00:27:19;18.70;;;16.70;;
6089;SDS011;3073;42.660;23.316;2022-07-10T00:29:46;22.60;;;15.93;;
6089;SDS011;3073;42.660;23.316;2022-07-10T00:32:13;19.67;;;16.70;;
6089;SDS011;3073;42.660;23.316;2022-07-10T00:34:40;23.03;;;16.43;;
6089;SDS011;3073;42.660;23.316;2022-07-10T00:37:08;22.33;;;17.43;;
6089;SDS011;3073;42.660;23.316;2022-07-10T00:39:36;19.80;;;16.77;;
6089;SDS011;3073;42.660;23.316;2022-07-10T00:42:06;20.63;;;17.40;;
6089;SDS011;3073;42.660;23.316;2022-07-10T00:44:34;18.80;;;16.73;;
6089;SDS011;3073;42.660;23.316;2022-07-10T00:47:02;19.37;;;17.27;;
6089;SDS011;3073;42.660;23.316;2022-07-10T00:49:29;19.33;;;16.27;;
6089;SDS011;3073;42.660;23.316;2022-07-10T00:51:56;22.83;;;17.10;;
6089;SDS011;3073;42.660;23.316;2022-07-10T00:54:26;17.10;;;15.40;;
6089;SDS011;3073;42.660;23.316;2022-07-10T00:56:54;18.83;;;16.17;;
6089;SDS011;3073;42.660;23.316;2022-07-10T00:59:21;23.20;;;16.53;;
6089;SDS011;3073;42.660;23.316;2022-07-10T01:01:49;18.40;;;16.47;;
6089;SDS011;3073;42.660;23.316;2022-07-10T01:04:17;17.77;;;15.50;;
6089;SDS011;3073;42.660;23.316;2022-07-10T01:06:44;18.13;;;16.10;;
6089;SDS011;3073;42.660;23.316;2022-07-10T01:09:11;18.57;;;16.23;;
6089;SDS011;3073;42.660;23.316;2022-07-10T01:11:39;18.90;;;15.80;;
6089;SDS011;3073;42.660;23.316;2022-07-10T01:14:06;21.00;;;15.80;;
6089;SDS011;3073;42.660;23.316;2022-07-10T01:16:34;19.50;;;16.47;;
6089;SDS011;3073;42.660;23.316;2022-07-10T01:19:01;19.07;;;15.77;;
6089;SDS011;3073;42.660;23.316;2022-07-10T01:21:30;34.50;;;17.50;;
6089;SDS011;3073;42.660;23.316;2022-07-10T01:23:59;21.70;;;16.50;;
6089;SDS011;3073;42.660;23.316;2022-07-10T01:26:29;18.33;;;16.40;;
6089;SDS011;3073;42.660;23.316;2022-07-10T01:28:56;19.10;;;16.10;;
6089;SDS011;3073;42.660;23.316;2022-07-10T01:31:24;20.73;;;17.40;;
6089;SDS011;3073;42.660;23.316;2022-07-10T01:33:52;17.13;;;15.33;;
6089;SDS011;3073;42.660;23.316;2022-07-10T01:36:19;20.33;;;16.23;;
6089;SDS011;3073;42.660;23.316;2022-07-10T01:38:49;21.57;;;17.33;;
6089;SDS011;3073;42.660;23.316;2022-07-10T01:41:17;19.73;;;15.23;;
6089;SDS011;3073;42.660;23.316;2022-07-10T01:43:44;17.10;;;15.17;;
6089;SDS011;3073;42.660;23.316;2022-07-10T01:46:13;16.80;;;13.77;;
6089;SDS011;3073;42.660;23.316;2022-07-10T01:48:40;15.80;;;13.90;;
6089;SDS011;3073;42.660;23.316;2022-07-10T01:51:08;15.93;;;14.30;;
6089;SDS011;3073;42.660;23.316;2022-07-10T01:53:35;17.20;;;15.40;;
6089;SDS011;3073;42.660;23.316;2022-07-10T01:56:04;20.60;;;15.57;;
6089;SDS011;3073;42.660;23.316;2022-07-10T01:58:33;16.10;;;13.50;;
6089;SDS011;3073;42.660;23.316;2022-07-10T02:01:00;16.83;;;15.03;;
6089;SDS011;3073;42.660;23.316;2022-07-10T02:03:28;18.23;;;13.00;;
6089;SDS011;3073;42.660;23.316;2022-07-10T02:06:12;19.53;;;15.57;;
6089;SDS011;3073;42.660;23.316;2022-07-10T02:08:39;15.57;;;14.00;;
6089;SDS011;3073;42.660;23.316;2022-07-10T02:11:07;19.43;;;15.13;;
6089;SDS011;3073;42.660;23.316;2022-07-10T02:13:34;16.23;;;13.83;;
6089;SDS011;3073;42.660;23.316;2022-07-10T02:16:01;16.73;;;14.50;;
6089;SDS011;3073;42.660;23.316;2022-07-10T02:18:28;17.97;;;14.73;;
6089;SDS011;3073;42.660;23.316;2022-07-10T02:20:57;24.47;;;15.07;;
6089;SDS011;3073;42.660;23.316;2022-07-10T02:23:24;16.53;;;14.73;;
6089;SDS011;3073;42.660;23.316;2022-07-10T02:25:50;18.33;;;15.40;;
6089;SDS011;3073;42.660;23.316;2022-07-10T02:28:19;18.50;;;14.90;;
6089;SDS011;3073;42.660;23.316;2022-07-10T02:30:45;17.83;;;15.93;;
6089;SDS011;3073;42.660;23.316;2022-07-10T02:33:12;20.00;;;16.23;;
6089;SDS011;3073;42.660;23.316;2022-07-10T02:35:39;15.77;;;14.17;;
6089;SDS011;3073;42.660;23.316;2022-07-10T02:38:06;16.77;;;15.07;;
6089;SDS011;3073;42.660;23.316;2022-07-10T02:40:32;19.23;;;15.40;;
6089;SDS011;3073;42.660;23.316;2022-07-10T02:42:59;17.30;;;15.30;;
6089;SDS011;3073;42.660;23.316;2022-07-10T02:45:27;16.60;;;14.60;;
6089;SDS011;3073;42.660;23.316;2022-07-10T02:47:54;22.93;;;14.53;;
6089;SDS011;3073;42.660;23.316;2022-07-10T02:50:21;17.80;;;14.20;;
6089;SDS011;3073;42.660;23.316;2022-07-10T02:52:48;15.67;;;14.17;;
6089;SDS011;3073;42.660;23.316;2022-07-10T02:55:15;16.57;;;14.53;;
6089;SDS011;3073;42.660;23.316;2022-07-10T02:57:42;17.23;;;14.73;;
6089;SDS011;3073;42.660;23.316;2022-07-10T03:00:09;21.10;;;13.43;;
6089;SDS011;3073;42.660;23.316;2022-07-10T03:02:38;17.70;;;13.40;;
6089;SDS011;3073;42.660;23.316;2022-07-10T03:05:05;15.30;;;13.70;;
6089;SDS011;3073;42.660;23.316;2022-07-10T03:07:33;16.63;;;13.63;;
6089;SDS011;3073;42.660;23.316;2022-07-10T03:09:59;17.30;;;13.90;;
6089;SDS011;3073;42.660;23.316;2022-07-10T03:12:26;19.10;;;13.57;;
6089;SDS011;3073;42.660;23.316;2022-07-10T03:14:53;19.20;;;14.87;;
6089;SDS011;3073;42.660;23.316;2022-07-10T03:17:20;15.10;;;13.50;;
6089;SDS011;3073;42.660;23.316;2022-07-10T03:19:48;15.83;;;13.70;;
6089;SDS011;3073;42.660;23.316;2022-07-10T03:22:15;18.60;;;13.00;;
6089;SDS011;3073;42.660;23.316;2022-07-10T03:24:42;17.83;;;13.73;;
6089;SDS011;3073;42.660;23.316;2022-07-10T03:27:11;14.60;;;13.07;;
6089;SDS011;3073;42.660;23.316;2022-07-10T03:29:38;15.53;;;13.97;;
6089;SDS011;3073;42.660;23.316;2022-07-10T03:32:06;19.50;;;14.53;;
6089;SDS011;3073;42.660;23.316;2022-07-10T03:34:33;20.67;;;15.10;;
6089;SDS011;3073;42.660;23.316;2022-07-10T03:37:02;17.10;;;14.00;;
6089;SDS011;3073;42.660;23.316;2022-07-10T03:39:30;22.57;;;15.47;;
6089;SDS011;3073;42.660;23.316;2022-07-10T03:41:58;15.03;;;13.40;;
6089;SDS011;3073;42.660;23.316;2022-07-10T03:44:25;16.10;;;13.73;;
6089;SDS011;3073;42.660;23.316;2022-07-10T03:46:52;19.47;;;14.23;;
6089;SDS011;3073;42.660;23.316;2022-07-10T03:49:18;14.60;;;12.70;;
6089;SDS011;3073;42.660;23.316;2022-07-10T03:51:45;19.37;;;14.17;;
6089;SDS011;3073;42.660;23.316;2022-07-10T03:54:14;19.53;;;13.40;;
6089;SDS011;3073;42.660;23.316;2022-07-10T03:56:41;16.40;;;14.43;;
6089;SDS011;3073;42.660;23.316;2022-07-10T03:59:25;24.80;;;14.37;;
6089;SDS011;3073;42.660;23.316;2022-07-10T04:01:52;16.30;;;14.50;;
6089;SDS011;3073;42.660;23.316;2022-07-10T04:04:19;15.73;;;14.13;;
6089;SDS011;3073;42.660;23.316;2022-07-10T04:06:46;19.40;;;13.77;;
6089;SDS011;3073;42.660;23.316;2022-07-10T04:09:14;22.40;;;14.23;;
6089;SDS011;3073;42.660;23.316;2022-07-10T04:11:41;20.83;;;14.33;;
6089;SDS011;3073;42.660;23.316;2022-07-10T04:14:08;14.33;;;12.53;;
6089;SDS011;3073;42.660;23.316;2022-07-10T04:16:35;18.13;;;13.17;;
6089;SDS011;3073;42.660;23.316;2022-07-10T04:19:03;16.73;;;13.37;;
6089;SDS011;3073;42.660;23.316;2022-07-10T04:21:29;22.10;;;13.10;;
6089;SDS011;3073;42.660;23.316;2022-07-10T04:23:56;14.50;;;13.00;;
6089;SDS011;3073;42.660;23.316;2022-07-10T04:26:25;15.67;;;13.30;;
6089;SDS011;3073;42.660;23.316;2022-07-10T04:28:52;33.23;;;13.80;;
6089;SDS011;3073;42.660;23.316;2022-07-10T04:31:19;18.03;;;14.00;;
6089;SDS011;3073;42.660;23.316;2022-07-10T04:33:46;19.00;;;12.93;;
6089;SDS011;3073;42.660;23.316;2022-07-10T04:36:13;16.43;;;11.27;;
6089;SDS011;3073;42.660;23.316;2022-07-10T04:38:41;13.60;;;12.30;;
6089;SDS011;3073;42.660;23.316;2022-07-10T04:41:08;16.93;;;11.70;;
6089;SDS011;3073;42.660;23.316;2022-07-10T04:43:36;15.53;;;10.70;;
6089;SDS011;3073;42.660;23.316;2022-07-10T04:46:03;13.43;;;10.70;;
6089;SDS011;3073;42.660;23.316;2022-07-10T04:48:31;15.93;;;10.93;;
6089;SDS011;3073;42.660;23.316;2022-07-10T04:50:58;16.53;;;11.40;;
6089;SDS011;3073;42.660;23.316;2022-07-10T04:53:25;11.20;;;10.10;;
6089;SDS011;3073;42.660;23.316;2022-07-10T04:55:52;12.57;;;11.00;;
6089;SDS011;3073;42.660;23.316;2022-07-10T04:58:19;14.53;;;11.00;;
6089;SDS011;3073;42.660;23.316;2022-07-10T05:00:47;15.73;;;10.50;;
6089;SDS011;3073;42.660;23.316;2022-07-10T05:03:14;11.67;;;10.40;;
6089;SDS011;3073;42.660;23.316;2022-07-10T05:05:41;15.67;;;9.70;;
6089;SDS011;3073;42.660;23.316;2022-07-10T05:08:08;12.50;;;9.70;;
6089;SDS011;3073;42.660;23.316;2022-07-10T05:10:35;11.83;;;10.63;;
6089;SDS011;3073;42.660;23.316;2022-07-10T05:13:02;10.60;;;9.50;;
6089;SDS011;3073;42.660;23.316;2022-07-10T05:15:29;16.23;;;10.20;;
6089;SDS011;3073;42.660;23.316;2022-07-10T05:17:57;10.57;;;9.57;;
6089;SDS011;3073;42.660;23.316;2022-07-10T05:20:24;12.00;;;9.67;;
6089;SDS011;3073;42.660;23.316;2022-07-10T05:22:51;16.97;;;9.63;;
6089;SDS011;3073;42.660;23.316;2022-07-10T05:25:18;10.63;;;8.77;;
6089;SDS011;3073;42.660;23.316;2022-07-10T05:27:46;14.37;;;9.10;;
6089;SDS011;3073;42.660;23.316;2022-07-10T05:30:12;9.87;;;8.80;;
6089;SDS011;3073;42.660;23.316;2022-07-10T05:32:43;12.93;;;8.90;;
6089;SDS011;3073;42.660;23.316;2022-07-10T05:35:11;9.73;;;8.63;;
6089;SDS011;3073;42.660;23.316;2022-07-10T05:37:38;12.57;;;9.43;;
6089;SDS011;3073;42.660;23.316;2022-07-10T05:40:06;16.50;;;8.93;;
6089;SDS011;3073;42.660;23.316;2022-07-10T05:42:33;14.00;;;8.57;;
6089;SDS011;3073;42.660;23.316;2022-07-10T05:45:00;10.07;;;8.97;;
6089;SDS011;3073;42.660;23.316;2022-07-10T05:47:27;10.20;;;9.10;;
6089;SDS011;3073;42.660;23.316;2022-07-10T05:49:54;14.70;;;9.00;;
6089;SDS011;3073;42.660;23.316;2022-07-10T05:52:22;14.17;;;9.53;;
6089;SDS011;3073;42.660;23.316;2022-07-10T05:54:49;12.83;;;8.73;;
6089;SDS011;3073;42.660;23.316;2022-07-10T05:57:16;10.57;;;9.53;;
6089;SDS011;3073;42.660;23.316;2022-07-10T05:59:43;11.93;;;8.30;;
6089;SDS011;3073;42.660;23.316;2022-07-10T06:02:10;13.30;;;8.10;;
6089;SDS011;3073;42.660;23.316;2022-07-10T06:04:37;8.93;;;6.63;;
6089;SDS011;3073;42.660;23.316;2022-07-10T06:07:04;10.13;;;8.50;;
6089;SDS011;3073;42.660;23.316;2022-07-10T06:09:32;12.30;;;8.10;;
6089;SDS011;3073;42.660;23.316;2022-07-10T06:11:59;11.60;;;7.50;;
6089;SDS011;3073;42.660;23.316;2022-07-10T06:14:26;12.97;;;6.80;;
6089;SDS011;3073;42.660;23.316;2022-07-10T06:16:53;8.73;;;6.57;;
6089;SDS011;3073;42.660;23.316;2022-07-10T06:19:20;9.70;;;6.60;;
6089;SDS011;3073;42.660;23.316;2022-07-10T06:21:47;8.00;;;6.07;;
6089;SDS011;3073;42.660;23.316;2022-07-10T06:24:35;7.27;;;6.20;;
6089;SDS011;3073;42.660;23.316;2022-07-10T06:27:03;8.57;;;6.10;;
6089;SDS011;3073;42.660;23.316;2022-07-10T06:29:30;9.03;;;5.70;;
6089;SDS011;3073;42.660;23.316;2022-07-10T06:31:57;13.03;;;6.10;;
6089;SDS011;3073;42.660;23.316;2022-07-10T06:34:24;6.10;;;5.50;;
6089;SDS011;3073;42.660;23.316;2022-07-10T06:36:51;6.33;;;5.40;;
6089;SDS011;3073;42.660;23.316;2022-07-10T06:39:17;7.90;;;5.83;;
6089;SDS011;3073;42.660;23.316;2022-07-10T06:41:46;9.23;;;5.50;;
6089;SDS011;3073;42.660;23.316;2022-07-10T06:44:13;7.33;;;5.50;;
6089;SDS011;3073;42.660;23.316;2022-07-10T06:46:40;6.90;;;5.30;;
6089;SDS011;3073;42.660;23.316;2022-07-10T06:49:07;7.43;;;5.57;;
6089;SDS011;3073;42.660;23.316;2022-07-10T06:51:34;10.30;;;5.93;;
6089;SDS011;3073;42.660;23.316;2022-07-10T06:54:01;6.27;;;5.13;;
6089;SDS011;3073;42.660;23.316;2022-07-10T06:56:28;10.30;;;5.50;;
6089;SDS011;3073;42.660;23.316;2022-07-10T06:58:56;6.53;;;5.37;;
6089;SDS011;3073;42.660;23.316;2022-07-10T07:01:23;6.50;;;5.50;;
6089;SDS011;3073;42.660;23.316;2022-07-10T07:03:50;6.23;;;5.63;;
6089;SDS011;3073;42.660;23.316;2022-07-10T07:06:17;11.17;;;5.37;;
6089;SDS011;3073;42.660;23.316;2022-07-10T07:08:44;10.73;;;6.00;;
6089;SDS011;3073;42.660;23.316;2022-07-10T07:11:11;6.83;;;5.43;;
6089;SDS011;3073;42.660;23.316;2022-07-10T07:13:38;6.10;;;4.80;;
6089;SDS011;3073;42.660;23.316;2022-07-10T07:16:06;7.07;;;5.10;;
6089;SDS011;3073;42.660;23.316;2022-07-10T07:18:34;7.20;;;5.20;;
6089;SDS011;3073;42.660;23.316;2022-07-10T07:21:12;5.20;;;4.57;;
6089;SDS011;3073;42.660;23.316;2022-07-10T07:23:56;5.40;;;4.33;;
6089;SDS011;3073;42.660;23.316;2022-07-10T07:26:23;5.47;;;4.47;;
6089;SDS011;3073;42.660;23.316;2022-07-10T07:28:50;10.73;;;6.20;;
6089;SDS011;3073;42.660;23.316;2022-07-10T07:31:18;8.67;;;5.20;;
6089;SDS011;3073;42.660;23.316;2022-07-10T07:33:45;5.40;;;4.87;;
6089;SDS011;3073;42.660;23.316;2022-07-10T07:36:12;6.20;;;5.03;;
6089;SDS011;3073;42.660;23.316;2022-07-10T07:38:39;5.00;;;4.23;;
6089;SDS011;3073;42.660;23.316;2022-07-10T07:41:06;5.77;;;4.90;;
6089;SDS011;3073;42.660;23.316;2022-07-10T07:43:34;6.13;;;4.23;;
6089;SDS011;3073;42.660;23.316;2022-07-10T07:46:00;6.00;;;4.50;;
6089;SDS011;3073;42.660;23.316;2022-07-10T07:48:29;5.60;;;3.80;;
6089;SDS011;3073;42.660;23.316;2022-07-10T07:50:56;6.73;;;4.20;;
6089;SDS011;3073;42.660;23.316;2022-07-10T07:53:23;5.10;;;4.07;;
6089;SDS011;3073;42.660;23.316;2022-07-10T07:55:50;10.93;;;4.07;;
6089;SDS011;3073;42.660;23.316;2022-07-10T07:58:17;8.70;;;4.67;;
6089;SDS011;3073;42.660;23.316;2022-07-10T08:00:44;5.90;;;4.40;;
6089;SDS011;3073;42.660;23.316;2022-07-10T08:03:11;7.60;;;3.90;;
6089;SDS011;3073;42.660;23.316;2022-07-10T08:05:39;9.57;;;4.43;;
6089;SDS011;3073;42.660;23.316;2022-07-10T08:08:05;4.20;;;3.60;;
6089;SDS011;3073;42.660;23.316;2022-07-10T08:10:34;3.90;;;3.50;;
6089;SDS011;3073;42.660;23.316;2022-07-10T08:13:01;10.90;;;4.20;;
6089;SDS011;3073;42.660;23.316;2022-07-10T08:15:29;8.00;;;4.17;;
6089;SDS011;3073;42.660;23.316;2022-07-10T08:17:57;5.57;;;4.47;;
6089;SDS011;3073;42.660;23.316;2022-07-10T08:20:26;9.50;;;3.63;;
6089;SDS011;3073;42.660;23.316;2022-07-10T08:22:54;4.60;;;4.20;;
6089;SDS011;3073;42.660;23.316;2022-07-10T08:25:21;4.50;;;3.87;;
6089;SDS011;3073;42.660;23.316;2022-07-10T08:27:49;5.43;;;3.40;;
6089;SDS011;3073;42.660;23.316;2022-07-10T08:30:16;5.17;;;4.10;;
6089;SDS011;3073;42.660;23.316;2022-07-10T08:32:43;4.20;;;3.47;;
6089;SDS011;3073;42.660;23.316;2022-07-10T08:35:10;7.03;;;3.37;;
6089;SDS011;3073;42.660;23.316;2022-07-10T08:37:38;9.33;;;3.60;;
6089;SDS011;3073;42.660;23.316;2022-07-10T08:40:08;13.13;;;3.60;;
6089;SDS011;3073;42.660;23.316;2022-07-10T08:42:35;4.90;;;3.90;;
6089;SDS011;3073;42.660;23.316;2022-07-10T08:45:02;3.70;;;3.40;;
6089;SDS011;3073;42.660;23.316;2022-07-10T08:47:29;6.50;;;4.07;;
6089;SDS011;3073;42.660;23.316;2022-07-10T08:50:00;5.27;;;3.53;;
6089;SDS011;3073;42.660;23.316;2022-07-10T08:52:31;4.57;;;4.00;;
6089;SDS011;3073;42.660;23.316;2022-07-10T08:55:00;5.03;;;4.07;;
6089;SDS011;3073;42.660;23.316;2022-07-10T08:57:29;4.43;;;3.47;;
6089;SDS011;3073;42.660;23.316;2022-07-10T08:59:57;5.87;;;4.40;;
6089;SDS011;3073;42.660;23.316;2022-07-10T09:02:25;5.00;;;3.67;;
6089;SDS011;3073;42.660;23.316;2022-07-10T09:04:52;4.77;;;3.63;;
6089;SDS011;3073;42.660;23.316;2022-07-10T09:07:19;7.17;;;3.80;;
6089;SDS011;3073;42.660;23.316;2022-07-10T09:09:51;6.70;;;3.57;;
6089;SDS011;3073;42.660;23.316;2022-07-10T09:12:23;5.50;;;3.60;;
6089;SDS011;3073;42.660;23.316;2022-07-10T09:14:52;9.67;;;3.40;;
6089;SDS011;3073;42.660;23.316;2022-07-10T09:17:19;10.10;;;4.13;;
6089;SDS011;3073;42.660;23.316;2022-07-10T09:19:46;3.47;;;3.10;;
6089;SDS011;3073;42.660;23.316;2022-07-10T09:22:13;7.80;;;3.40;;
6089;SDS011;3073;42.660;23.316;2022-07-10T09:24:41;4.03;;;3.13;;
6089;SDS011;3073;42.660;23.316;2022-07-10T09:27:10;4.38;;;3.28;;
6089;SDS011;3073;42.660;23.316;2022-07-10T09:29:45;4.23;;;3.80;;
6089;SDS011;3073;42.660;23.316;2022-07-10T09:32:14;11.90;;;3.50;;
6089;SDS011;3073;42.660;23.316;2022-07-10T09:34:42;4.33;;;3.40;;
6089;SDS011;3073;42.660;23.316;2022-07-10T09:37:17;4.77;;;3.63;;
6089;SDS011;3073;42.660;23.316;2022-07-10T09:39:51;6.33;;;3.97;;
6089;SDS011;3073;42.660;23.316;2022-07-10T09:42:26;6.30;;;3.50;;
6089;SDS011;3073;42.660;23.316;2022-07-10T09:47:53;5.80;;;3.27;;
6089;SDS011;3073;42.660;23.316;2022-07-10T09:50:26;6.05;;;3.03;;
6089;SDS011;3073;42.660;23.316;2022-07-10T09:52:56;5.57;;;3.42;;
6089;SDS011;3073;42.660;23.316;2022-07-10T09:55:24;5.50;;;3.17;;
6089;SDS011;3073;42.660;23.316;2022-07-10T09:57:53;5.60;;;3.35;;
6089;SDS011;3073;42.660;23.316;2022-07-10T10:00:26;4.30;;;3.10;;
6089;SDS011;3073;42.660;23.316;2022-07-10T10:02:58;8.45;;;3.15;;
6089;SDS011;3073;42.660;23.316;2022-07-10T10:05:30;10.83;;;3.20;;
6089;SDS011;3073;42.660;23.316;2022-07-10T10:08:01;4.95;;;3.50;;
6089;SDS011;3073;42.660;23.316;2022-07-10T10:10:35;8.80;;;3.15;;
6089;SDS011;3073;42.660;23.316;2022-07-10T10:13:05;6.73;;;3.07;;
6089;SDS011;3073;42.660;23.316;2022-07-10T10:15:36;5.00;;;3.20;;
6089;SDS011;3073;42.660;23.316;2022-07-10T10:18:05;3.07;;;2.77;;
6089;SDS011;3073;42.660;23.316;2022-07-10T10:20:34;5.87;;;2.83;;
6089;SDS011;3073;42.660;23.316;2022-07-10T10:23:03;9.40;;;2.83;;
6089;SDS011;3073;42.660;23.316;2022-07-10T10:25:31;5.63;;;3.20;;
6089;SDS011;3073;42.660;23.316;2022-07-10T10:27:59;4.93;;;2.78;;
6089;SDS011;3073;42.660;23.316;2022-07-10T10:30:27;5.28;;;2.65;;
6089;SDS011;3073;42.660;23.316;2022-07-10T10:32:55;6.25;;;2.90;;
6089;SDS011;3073;42.660;23.316;2022-07-10T10:38:12;6.43;;;3.10;;
6089;SDS011;3073;42.660;23.316;2022-07-10T10:40:40;4.07;;;2.40;;
6089;SDS011;3073;42.660;23.316;2022-07-10T10:43:17;5.65;;;5.03;;
6089;SDS011;3073;42.660;23.316;2022-07-10T10:45:44;5.57;;;3.60;;
6089;SDS011;3073;42.660;23.316;2022-07-10T10:48:12;16.97;;;4.30;;
6089;SDS011;3073;42.660;23.316;2022-07-10T10:50:40;8.33;;;3.90;;
6089;SDS011;3073;42.660;23.316;2022-07-10T10:53:14;6.07;;;4.97;;
6089;SDS011;3073;42.660;23.316;2022-07-10T10:58:42;6.40;;;3.40;;
6089;SDS011;3073;42.660;23.316;2022-07-10T11:01:23;10.27;;;2.80;;
6089;SDS011;3073;42.660;23.316;2022-07-10T11:06:43;4.93;;;3.37;;
6089;SDS011;3073;42.660;23.316;2022-07-10T11:12:07;5.23;;;3.43;;
6089;SDS011;3073;42.660;23.316;2022-07-10T11:14:35;4.30;;;3.30;;
6089;SDS011;3073;42.660;23.316;2022-07-10T11:17:03;7.80;;;2.87;;
6089;SDS011;3073;42.660;23.316;2022-07-10T11:19:31;3.53;;;2.80;;
6089;SDS011;3073;42.660;23.316;2022-07-10T11:22:03;4.43;;;2.83;;
6089;SDS011;3073;42.660;23.316;2022-07-10T11:24:55;3.20;;;2.60;;
6089;SDS011;3073;42.660;23.316;2022-07-10T11:27:34;8.10;;;3.10;;
6089;SDS011;3073;42.660;23.316;2022-07-10T11:30:18;6.03;;;3.10;;
6089;SDS011;3073;42.660;23.316;2022-07-10T11:32:45;5.33;;;2.77;;
6089;SDS011;3073;42.660;23.316;2022-07-10T11:35:14;3.40;;;3.10;;
6089;SDS011;3073;42.660;23.316;2022-07-10T11:37:48;5.33;;;3.40;;
6089;SDS011;3073;42.660;23.316;2022-07-10T11:40:18;8.77;;;3.80;;
6089;SDS011;3073;42.660;23.316;2022-07-10T11:42:49;5.83;;;3.10;;
6089;SDS011;3073;42.660;23.316;2022-07-10T11:45:21;5.80;;;3.37;;
6089;SDS011;3073;42.660;23.316;2022-07-10T11:47:51;6.17;;;3.00;;
6089;SDS011;3073;42.660;23.316;2022-07-10T11:50:18;3.87;;;3.20;;
6089;SDS011;3073;42.660;23.316;2022-07-10T11:52:45;3.57;;;3.20;;
6089;SDS011;3073;42.660;23.316;2022-07-10T11:55:13;2.80;;;2.43;;
6089;SDS011;3073;42.660;23.316;2022-07-10T11:57:42;4.60;;;2.70;;
6089;SDS011;3073;42.660;23.316;2022-07-10T12:00:23;7.93;;;3.40;;
6089;SDS011;3073;42.660;23.316;2022-07-10T12:03:16;4.50;;;2.63;;
6089;SDS011;3073;42.660;23.316;2022-07-10T12:05:45;4.90;;;2.53;;
6089;SDS011;3073;42.660;23.316;2022-07-10T12:08:13;6.03;;;3.00;;
6089;SDS011;3073;42.660;23.316;2022-07-10T12:10:41;3.33;;;2.80;;
6089;SDS011;3073;42.660;23.316;2022-07-10T12:13:10;3.60;;;2.90;;
6089;SDS011;3073;42.660;23.316;2022-07-10T12:15:39;5.03;;;2.30;;
6089;SDS011;3073;42.660;23.316;2022-07-10T12:18:08;9.13;;;2.57;;
6089;SDS011;3073;42.660;23.316;2022-07-10T12:20:35;5.13;;;2.67;;
6089;SDS011;3073;42.660;23.316;2022-07-10T12:23:07;3.67;;;2.33;;
6089;SDS011;3073;42.660;23.316;2022-07-10T12:25:35;2.93;;;2.50;;
6089;SDS011;3073;42.660;23.316;2022-07-10T12:28:02;5.07;;;2.50;;
6089;SDS011;3073;42.660;23.316;2022-07-10T12:30:37;4.87;;;2.80;;
6089;SDS011;3073;42.660;23.316;2022-07-10T12:33:08;3.80;;;3.00;;
6089;SDS011;3073;42.660;23.316;2022-07-10T12:35:46;3.17;;;2.37;;
6089;SDS011;3073;42.660;23.316;2022-07-10T12:38:15;9.20;;;3.00;;
6089;SDS011;3073;42.660;23.316;2022-07-10T12:40:45;6.10;;;2.50;;
6089;SDS011;3073;42.660;23.316;2022-07-10T12:43:12;4.60;;;3.10;;
6089;SDS011;3073;42.660;23.316;2022-07-10T12:45:40;3.23;;;2.83;;
6089;SDS011;3073;42.660;23.316;2022-07-10T12:48:07;3.73;;;2.73;;
6089;SDS011;3073;42.660;23.316;2022-07-10T12:50:47;2.40;;;2.20;;
6089;SDS011;3073;42.660;23.316;2022-07-10T12:53:14;5.97;;;3.03;;
6089;SDS011;3073;42.660;23.316;2022-07-10T12:55:41;7.37;;;3.13;;
6089;SDS011;3073;42.660;23.316;2022-07-10T12:58:09;9.27;;;2.80;;
6089;SDS011;3073;42.660;23.316;2022-07-10T13:00:44;2.73;;;2.37;;
6089;SDS011;3073;42.660;23.316;2022-07-10T13:03:16;2.80;;;1.80;;
6089;SDS011;3073;42.660;23.316;2022-07-10T13:05:47;3.70;;;3.23;;
6089;SDS011;3073;42.660;23.316;2022-07-10T13:08:14;5.10;;;3.30;;
6089;SDS011;3073;42.660;23.316;2022-07-10T13:10:45;6.07;;;2.70;;
6089;SDS011;3073;42.660;23.316;2022-07-10T13:13:14;5.53;;;2.10;;
6089;SDS011;3073;42.660;23.316;2022-07-10T13:15:43;2.50;;;1.60;;
6089;SDS011;3073;42.660;23.316;2022-07-10T13:18:15;4.97;;;1.63;;
6089;SDS011;3073;42.660;23.316;2022-07-10T13:20:43;3.83;;;1.97;;
6089;SDS011;3073;42.660;23.316;2022-07-10T13:23:11;1.80;;;1.38;;
6089;SDS011;3073;42.660;23.316;2022-07-10T13:25:38;2.72;;;1.60;;
6089;SDS011;3073;42.660;23.316;2022-07-10T13:28:06;4.20;;;1.65;;
6089;SDS011;3073;42.660;23.316;2022-07-10T13:30:33;2.42;;;1.75;;
6089;SDS011;3073;42.660;23.316;2022-07-10T13:33:02;3.35;;;1.63;;
6089;SDS011;3073;42.660;23.316;2022-07-10T13:35:31;2.10;;;1.23;;
6089;SDS011;3073;42.660;23.316;2022-07-10T13:37:58;3.60;;;1.60;;
6089;SDS011;3073;42.660;23.316;2022-07-10T13:40:26;5.10;;;1.50;;
6089;SDS011;3073;42.660;23.316;2022-07-10T13:42:53;7.03;;;1.80;;
6089;SDS011;3073;42.660;23.316;2022-07-10T13:45:22;9.90;;;2.17;;
6089;SDS011;3073;42.660;23.316;2022-07-10T13:47:50;2.77;;;1.57;;
6089;SDS011;3073;42.660;23.316;2022-07-10T13:50:19;7.13;;;1.57;;
6089;SDS011;3073;42.660;23.316;2022-07-10T13:52:46;4.40;;;1.80;;
6089;SDS011;3073;42.660;23.316;2022-07-10T13:55:13;3.73;;;1.93;;
6089;SDS011;3073;42.660;23.316;2022-07-10T13:57:40;3.67;;;1.50;;
6089;SDS011;3073;42.660;23.316;2022-07-10T14:00:07;5.38;;;1.65;;
6089;SDS011;3073;42.660;23.316;2022-07-10T14:02:35;8.52;;;2.03;;
6089;SDS011;3073;42.660;23.316;2022-07-10T14:05:01;3.08;;;1.90;;
6089;SDS011;3073;42.660;23.316;2022-07-10T14:07:30;4.32;;;1.85;;
6089;SDS011;3073;42.660;23.316;2022-07-10T14:09:57;2.70;;;1.98;;
6089;SDS011;3073;42.660;23.316;2022-07-10T14:12:24;5.97;;;1.67;;
6089;SDS011;3073;42.660;23.316;2022-07-10T14:14:51;7.00;;;2.00;;
6089;SDS011;3073;42.660;23.316;2022-07-10T14:17:18;6.30;;;1.67;;
6089;SDS011;3073;42.660;23.316;2022-07-10T14:19:45;3.13;;;1.57;;
6089;SDS011;3073;42.660;23.316;2022-07-10T14:22:11;2.90;;;1.90;;
6089;SDS011;3073;42.660;23.316;2022-07-10T14:24:40;2.67;;;1.83;;
6089;SDS011;3073;42.660;23.316;2022-07-10T14:27:07;3.63;;;1.83;;
6089;SDS011;3073;42.660;23.316;2022-07-10T14:29:35;2.20;;;1.70;;
6089;SDS011;3073;42.660;23.316;2022-07-10T14:32:02;2.80;;;1.27;;
6089;SDS011;3073;42.660;23.316;2022-07-10T14:34:30;15.07;;;2.20;;
6089;SDS011;3073;42.660;23.316;2022-07-10T14:36:57;3.70;;;1.60;;
6089;SDS011;3073;42.660;23.316;2022-07-10T14:39:23;2.63;;;1.93;;
6089;SDS011;3073;42.660;23.316;2022-07-10T14:41:52;5.63;;;2.00;;
6089;SDS011;3073;42.660;23.316;2022-07-10T14:44:19;5.33;;;1.90;;
6089;SDS011;3073;42.660;23.316;2022-07-10T14:46:46;2.97;;;1.73;;
6089;SDS011;3073;42.660;23.316;2022-07-10T14:49:13;4.90;;;1.50;;
6089;SDS011;3073;42.660;23.316;2022-07-10T14:51:40;3.53;;;1.50;;
6089;SDS011;3073;42.660;23.316;2022-07-10T14:54:07;3.70;;;1.87;;
6089;SDS011;3073;42.660;23.316;2022-07-10T14:56:34;3.87;;;2.10;;
6089;SDS011;3073;42.660;23.316;2022-07-10T14:59:02;4.27;;;2.10;;
6089;SDS011;3073;42.660;23.316;2022-07-10T15:01:29;2.30;;;1.90;;
6089;SDS011;3073;42.660;23.316;2022-07-10T15:03:56;4.93;;;1.90;;
6089;SDS011;3073;42.660;23.316;2022-07-10T15:06:23;2.50;;;1.90;;
6089;SDS011;3073;42.660;23.316;2022-07-10T15:08:50;4.97;;;2.10;;
6089;SDS011;3073;42.660;23.316;2022-07-10T15:11:17;4.70;;;2.47;;
6089;SDS011;3073;42.660;23.316;2022-07-10T15:13:47;4.73;;;2.10;;